Overview Statistics Trail Chart Weather Telemetry Raw packets
 

This is the latest recevied weather packets stored in our database for station/object KC4JIR. If no packets are shown the sender has not sent any weather packets the latest 10 day(s).

<< 57 58 59 60 61 62 63 >>
Time Temp. Humidity Pressure Rain* Wind** Luminosity Snow
1788216394 32.22° C 70% 1015 hPa 0 mm - 31 W/m² -
1788216090 32.78° C 70% 1015 hPa 0 mm - 78 W/m² -
1788215785 32.78° C 70% 1014.8 hPa 0 mm - 47 W/m² -
1788215481 32.78° C 68% 1015.1 hPa 0 mm - 139 W/m² -
1788215182 33.33° C 66% 1014.8 hPa 0 mm - 157 W/m² -
1788214877 33.33° C 64% 1014.8 hPa 0 mm - 156 W/m² -
1788214573 32.78° C 64% 1014.9 hPa 0 mm - 51 W/m² -
1788214268 31.67° C 67% 1015 hPa 0 mm - 188 W/m² -
1788213963 31.67° C 71% 1015.1 hPa 0 mm - 35 W/m² -
1788213658 32.78° C 68% 1014.9 hPa 0 mm - 37 W/m² -
1788213348 34.44° C 59% 1014.8 hPa 0 mm - 48 W/m² -
1788213043 33.89° C 60% 1014.9 hPa 0 mm - 259 W/m² -
1788212741 34.44° C 58% 1015.1 hPa 0 mm - 278 W/m² -
1788212436 33.89° C 59% 1014.8 hPa 0 mm - 318 W/m² -
1788212133 33.89° C 59% 1015 hPa 0 mm - 318 W/m² -
1788211828 33.89° C 59% 1015 hPa 0 mm - 343 W/m² -
1788211524 33.89° C 59% 1014.9 hPa 0 mm - 364 W/m² -
1788211219 33.89° C 58% 1014.9 hPa 0 mm - 314 W/m² -
1788210914 34.44° C 57% 1015.1 hPa 0 mm - 368 W/m² -
1788210613 34.44° C 57% 1015.1 hPa 0 mm - 370 W/m² -
1788210308 33.89° C 57% 1015.1 hPa 0 mm - 387 W/m² -
1788210004 33.89° C 58% 1015.1 hPa 0 mm - 377 W/m² -
1788209699 33.33° C 65% 1015.1 hPa 0 mm - 401 W/m² -
1788209395 33.33° C 61% 1015 hPa 0 mm - 53 W/m² -
1788209089 35° C 58% 1014.9 hPa 0 mm - 337 W/m² -

* Rain latest hour (hover to see other rain measurements)
** Current wind speed in m/s (hover to see current wind gust speed)